createdAt,value
2018-06-12T00:01:08.866Z,13.20
2018-06-12T00:06:11.377Z,13.60
2018-06-12T00:11:13.574Z,12.90
2018-06-12T00:16:15.753Z,13.20
2018-06-12T00:21:17.937Z,12.33
2018-06-12T00:26:20.106Z,12.70
2018-06-12T00:31:22.297Z,12.43
2018-06-12T00:36:24.534Z,12.07
2018-06-12T00:41:27.030Z,11.20
2018-06-12T00:46:29.451Z,10.70
2018-06-12T00:51:31.883Z,12.47
2018-06-12T00:56:45.545Z,11.67
2018-06-12T01:01:47.698Z,11.40
2018-06-12T01:06:49.858Z,11.77
2018-06-12T01:11:52.021Z,12.27
2018-06-12T01:16:54.162Z,11.33
2018-06-12T01:21:56.309Z,11.30
2018-06-12T01:26:58.459Z,13.03
2018-06-12T01:32:00.610Z,11.00
2018-06-12T01:37:02.773Z,11.80
2018-06-12T01:42:05.211Z,11.80
2018-06-12T01:47:07.543Z,12.77
2018-06-12T01:52:09.682Z,12.50
2018-06-12T01:57:11.813Z,13.13
2018-06-12T02:02:13.934Z,12.80
2018-06-12T02:07:16.097Z,11.93
2018-06-12T02:12:18.265Z,13.00
2018-06-12T02:17:20.829Z,13.13
2018-06-12T02:22:22.978Z,13.33
2018-06-12T02:27:25.126Z,13.87
2018-06-12T02:32:27.263Z,15.30
2018-06-12T02:37:29.490Z,13.67
2018-06-12T02:42:31.665Z,13.07
2018-06-12T02:47:33.822Z,13.13
2018-06-12T02:52:35.949Z,12.33
2018-06-12T02:57:38.107Z,12.23
2018-06-12T03:02:40.279Z,11.77
2018-06-12T03:07:42.437Z,12.73
2018-06-12T03:12:44.601Z,11.83
2018-06-12T03:17:46.761Z,13.00
2018-06-12T03:22:48.955Z,12.00
2018-06-12T03:27:51.094Z,12.07
2018-06-12T03:32:53.241Z,13.50
2018-06-12T03:37:55.426Z,12.77
2018-06-12T03:42:57.601Z,11.00
2018-06-12T03:47:59.809Z,11.40
2018-06-12T03:53:01.978Z,11.63
2018-06-12T03:58:04.430Z,11.77
2018-06-12T04:03:06.593Z,11.80
2018-06-12T04:08:08.781Z,11.50
2018-06-12T04:13:10.954Z,11.97
2018-06-12T04:18:13.202Z,12.10
2018-06-12T04:23:15.420Z,12.33
2018-06-12T04:28:17.639Z,11.80
2018-06-12T04:33:20.037Z,12.00
2018-06-12T04:38:22.174Z,11.83
2018-06-12T04:43:24.354Z,10.90
2018-06-12T04:48:26.438Z,12.53
2018-06-12T04:53:28.573Z,11.77
2018-06-12T04:58:31.495Z,12.00
2018-06-12T05:03:33.639Z,12.83
2018-06-12T05:08:35.786Z,12.63
2018-06-12T05:13:37.934Z,12.50
2018-06-12T05:18:40.080Z,12.60
2018-06-12T05:23:42.254Z,12.50
2018-06-12T05:28:44.414Z,11.87
2018-06-12T05:33:46.550Z,11.87
2018-06-12T05:38:50.895Z,11.87
2018-06-12T05:43:53.070Z,11.23
2018-06-12T05:48:55.237Z,12.50
2018-06-12T05:53:57.398Z,13.20
2018-06-12T05:58:59.567Z,12.63
2018-06-12T06:04:01.768Z,14.03
2018-06-12T06:09:06.482Z,13.43
2018-06-12T06:14:08.633Z,13.93
2018-06-12T06:19:10.806Z,14.27
2018-06-12T06:24:13.006Z,14.60
2018-06-12T06:29:15.190Z,14.80
2018-06-12T06:34:17.366Z,14.03
2018-06-12T06:39:19.502Z,14.07
2018-06-12T06:44:21.618Z,13.70
2018-06-12T06:49:23.753Z,13.43
2018-06-12T06:54:25.932Z,12.90
2018-06-12T06:59:28.088Z,12.63
2018-06-12T07:04:30.213Z,12.33
2018-06-12T07:09:32.357Z,13.30
2018-06-12T07:14:34.645Z,12.90
2018-06-12T07:19:36.790Z,13.30
2018-06-12T07:24:38.926Z,12.03
2018-06-12T07:29:41.050Z,12.50
2018-06-12T07:34:43.185Z,12.73
2018-06-12T07:39:45.325Z,12.10
2018-06-12T07:44:47.450Z,11.20
2018-06-12T07:49:49.604Z,11.90
2018-06-12T07:54:51.786Z,11.13
2018-06-12T07:59:53.962Z,10.47
2018-06-12T08:04:56.089Z,11.60
2018-06-12T08:09:58.219Z,11.40
2018-06-12T08:15:00.349Z,10.93
2018-06-12T08:20:02.551Z,10.50
2018-06-12T08:25:05.063Z,11.03
2018-06-12T08:30:07.346Z,10.20
2018-06-12T08:35:09.641Z,10.27
2018-06-12T08:40:11.817Z,9.87
2018-06-12T08:45:14.002Z,8.70
2018-06-12T08:50:16.162Z,9.70
2018-06-12T08:55:18.329Z,9.30
2018-06-12T09:00:20.476Z,9.57
2018-06-12T09:05:22.654Z,9.13
2018-06-12T09:10:24.810Z,9.37
2018-06-12T09:15:27.007Z,9.57
2018-06-12T09:20:29.166Z,9.50
2018-06-12T09:25:31.321Z,10.10
2018-06-12T09:30:33.485Z,9.30
2018-06-12T09:35:35.631Z,9.60
2018-06-12T09:40:37.773Z,9.40
2018-06-12T09:45:39.906Z,10.50
2018-06-12T09:50:42.076Z,9.93
2018-06-12T09:55:44.230Z,10.60
2018-06-12T10:00:52.047Z,10.30
2018-06-12T10:05:54.190Z,10.00
2018-06-12T10:10:56.330Z,11.13
2018-06-12T10:15:58.474Z,10.40
2018-06-12T10:21:00.642Z,11.07
2018-06-12T10:26:02.804Z,10.83
2018-06-12T10:31:05.121Z,11.70
2018-06-12T10:36:07.258Z,11.17
2018-06-12T10:41:09.517Z,12.10
2018-06-12T10:46:11.642Z,10.20
2018-06-12T10:51:13.770Z,10.53
2018-06-12T10:56:15.939Z,10.83
2018-06-12T11:01:18.137Z,11.10
2018-06-12T11:06:20.290Z,10.53
2018-06-12T11:11:22.426Z,9.30
2018-06-12T11:16:24.583Z,8.73
2018-06-12T11:21:26.728Z,8.03
2018-06-12T11:26:28.908Z,9.10
2018-06-12T11:31:31.685Z,8.33
2018-06-12T11:36:34.079Z,8.70
2018-06-12T11:41:36.222Z,8.50
2018-06-12T11:46:38.378Z,8.77
2018-06-12T11:51:40.778Z,8.20
2018-06-12T11:56:42.918Z,8.53
2018-06-12T12:01:45.100Z,9.47
2018-06-12T12:06:47.201Z,9.60
2018-06-12T12:11:49.359Z,9.40
2018-06-12T12:16:51.514Z,9.90
2018-06-12T12:21:53.658Z,9.80
2018-06-12T12:26:55.799Z,10.07
2018-06-12T12:31:57.946Z,10.50
2018-06-12T12:37:00.229Z,10.53
2018-06-12T12:42:02.418Z,10.50
2018-06-12T12:47:04.602Z,9.80
2018-06-12T12:52:06.801Z,9.50
2018-06-12T12:57:08.971Z,9.30
2018-06-12T13:02:11.127Z,9.80
2018-06-12T13:07:13.307Z,9.30
2018-06-12T13:12:15.662Z,10.73
2018-06-12T13:17:17.830Z,10.47
2018-06-12T13:22:20.050Z,11.17
2018-06-12T13:27:22.232Z,11.90
2018-06-12T13:32:24.410Z,12.87
2018-06-12T13:37:26.597Z,12.50
2018-06-12T13:42:28.768Z,13.27
2018-06-12T13:47:30.934Z,12.47
2018-06-12T13:52:33.113Z,14.10
2018-06-12T13:57:35.310Z,13.43
2018-06-12T14:02:37.494Z,13.30
2018-06-12T14:07:39.688Z,12.43
2018-06-12T14:12:41.869Z,12.00
2018-06-12T14:17:44.086Z,11.70
2018-06-12T14:22:46.299Z,11.77
2018-06-12T14:27:48.468Z,10.83
2018-06-12T14:32:50.626Z,10.50
2018-06-12T14:37:53.214Z,10.07
2018-06-12T14:42:55.374Z,10.40
2018-06-12T14:47:57.536Z,9.27
2018-06-12T14:52:59.726Z,9.90
2018-06-12T14:58:01.906Z,9.90
2018-06-12T15:03:04.127Z,10.23
2018-06-12T15:08:06.481Z,9.03
2018-06-12T15:13:08.663Z,9.90
2018-06-12T15:18:10.869Z,8.47
2018-06-12T15:23:13.054Z,8.17
2018-06-12T15:28:15.222Z,8.60
2018-06-12T15:33:17.403Z,8.27
2018-06-12T15:38:19.606Z,8.80
2018-06-12T15:43:21.762Z,8.60
2018-06-12T15:48:23.925Z,8.97
2018-06-12T15:53:26.106Z,8.30
2018-06-12T15:58:28.366Z,8.13
2018-06-12T16:03:30.557Z,9.63
2018-06-12T16:08:32.799Z,7.30
2018-06-12T16:13:34.970Z,7.80
2018-06-12T16:18:37.134Z,7.90
2018-06-12T16:23:39.298Z,7.40
2018-06-12T16:28:41.470Z,6.80
2018-06-12T16:33:43.635Z,6.97
2018-06-12T16:38:45.795Z,6.80
2018-06-12T16:43:47.958Z,6.60
2018-06-12T16:48:50.121Z,7.10
2018-06-12T16:53:52.299Z,6.20
2018-06-12T16:58:54.481Z,7.07
2018-06-12T17:03:56.667Z,6.97
2018-06-12T17:08:58.868Z,7.57
2018-06-12T17:14:01.074Z,7.60
2018-06-12T17:19:03.291Z,7.60
2018-06-12T17:24:05.603Z,7.30
2018-06-12T17:29:07.798Z,7.83
2018-06-12T17:34:09.979Z,7.20
2018-06-12T17:39:12.127Z,7.40
2018-06-12T17:44:14.298Z,6.77
2018-06-12T17:49:16.438Z,6.57
2018-06-12T17:54:18.575Z,6.83
2018-06-12T17:59:20.734Z,7.30
2018-06-12T18:04:22.885Z,7.27
2018-06-12T18:09:25.031Z,6.33
2018-06-12T18:14:27.196Z,6.10
2018-06-12T18:19:29.369Z,6.80
2018-06-12T18:24:31.510Z,7.20
2018-06-12T18:29:35.034Z,6.53
2018-06-12T18:34:38.723Z,6.70
2018-06-12T18:39:42.314Z,6.57
2018-06-12T18:44:46.083Z,6.67
2018-06-12T18:49:48.739Z,5.97
2018-06-12T18:54:50.986Z,5.97
2018-06-12T18:59:53.406Z,6.50
2018-06-12T19:05:00.160Z,6.80
2018-06-12T19:10:02.879Z,6.10
2018-06-12T19:15:07.021Z,6.10
2018-06-12T19:20:09.335Z,6.57
2018-06-12T19:25:11.492Z,6.23
2018-06-12T19:30:14.736Z,6.67
2018-06-12T19:35:17.462Z,7.60
2018-06-12T19:40:19.637Z,7.10
2018-06-12T19:45:21.814Z,6.13
2018-06-12T19:50:23.974Z,7.30
2018-06-12T19:55:26.233Z,7.53
2018-06-12T20:00:28.429Z,7.00
2018-06-12T20:05:30.857Z,7.67
2018-06-12T20:10:33.920Z,8.17
2018-06-12T20:15:36.069Z,7.03
2018-06-12T20:20:38.303Z,7.70
2018-06-12T20:25:40.435Z,7.30
2018-06-12T20:30:42.571Z,6.57
2018-06-12T20:35:44.718Z,7.10
2018-06-12T20:40:46.863Z,7.30
2018-06-12T20:45:49.031Z,7.10
2018-06-12T20:50:51.195Z,7.43
2018-06-12T20:55:53.336Z,7.13
2018-06-12T21:00:55.501Z,7.23
2018-06-12T21:05:57.634Z,6.50
2018-06-12T21:10:59.775Z,6.77
2018-06-12T21:16:01.910Z,6.20
2018-06-12T21:21:04.050Z,6.37
2018-06-12T21:26:06.467Z,6.37
2018-06-12T21:31:08.623Z,6.00
2018-06-12T21:36:10.762Z,5.37
2018-06-12T21:41:12.901Z,5.90
2018-06-12T21:46:15.062Z,6.20
2018-06-12T21:51:17.222Z,6.40
2018-06-12T21:56:19.374Z,5.87
2018-06-12T22:01:21.538Z,5.70
2018-06-12T22:06:23.710Z,5.60
2018-06-12T22:11:25.854Z,5.57
2018-06-12T22:16:28.002Z,5.80
2018-06-12T22:21:30.142Z,5.43
2018-06-12T22:26:32.292Z,5.73
2018-06-12T22:31:34.489Z,5.63
2018-06-12T22:36:36.759Z,5.70
2018-06-12T22:41:38.922Z,5.80
2018-06-12T22:46:41.226Z,6.03
2018-06-12T22:51:43.407Z,6.80
2018-06-12T22:56:45.993Z,6.50
2018-06-12T23:01:48.165Z,6.87
2018-06-12T23:06:50.354Z,6.93
2018-06-12T23:11:52.556Z,6.70
2018-06-12T23:16:54.771Z,6.43
2018-06-12T23:21:59.526Z,8.00
2018-06-12T23:27:01.743Z,7.33
2018-06-12T23:32:03.886Z,8.47
2018-06-12T23:37:06.257Z,8.70
2018-06-12T23:42:08.463Z,8.60
2018-06-12T23:47:10.617Z,8.70
2018-06-12T23:52:12.753Z,8.77
2018-06-12T23:57:14.891Z,8.67
